sensor_id;sensor_type;location;lat;lon;timestamp;P1;durP1;ratioP1;P2;durP2;ratioP2
22715;SDS011;11525;51.152;4.456;2023-04-24T00:00:08;29.73;;;17.85;;
22715;SDS011;11525;51.152;4.456;2023-04-24T00:02:35;26.05;;;15.40;;
22715;SDS011;11525;51.152;4.456;2023-04-24T00:05:05;30.83;;;18.15;;
22715;SDS011;11525;51.152;4.456;2023-04-24T00:07:31;31.90;;;18.95;;
22715;SDS011;11525;51.152;4.456;2023-04-24T00:09:57;26.20;;;18.65;;
22715;SDS011;11525;51.152;4.456;2023-04-24T00:12:23;36.92;;;20.77;;
22715;SDS011;11525;51.152;4.456;2023-04-24T00:14:49;26.73;;;19.30;;
22715;SDS011;11525;51.152;4.456;2023-04-24T00:17:15;22.98;;;17.33;;
22715;SDS011;11525;51.152;4.456;2023-04-24T00:19:44;34.92;;;17.73;;
22715;SDS011;11525;51.152;4.456;2023-04-24T00:22:11;31.75;;;22.27;;
22715;SDS011;11525;51.152;4.456;2023-04-24T00:24:38;34.08;;;22.70;;
22715;SDS011;11525;51.152;4.456;2023-04-24T00:27:04;26.40;;;16.17;;
22715;SDS011;11525;51.152;4.456;2023-04-24T00:29:30;27.50;;;19.45;;
22715;SDS011;11525;51.152;4.456;2023-04-24T00:31:56;29.80;;;18.45;;
22715;SDS011;11525;51.152;4.456;2023-04-24T00:34:22;31.15;;;20.30;;
22715;SDS011;11525;51.152;4.456;2023-04-24T00:36:47;34.08;;;21.48;;
22715;SDS011;11525;51.152;4.456;2023-04-24T00:39:20;32.08;;;20.40;;
22715;SDS011;11525;51.152;4.456;2023-04-24T00:41:47;27.80;;;21.58;;
22715;SDS011;11525;51.152;4.456;2023-04-24T00:44:13;29.30;;;18.23;;
22715;SDS011;11525;51.152;4.456;2023-04-24T00:46:40;29.90;;;20.50;;
22715;SDS011;11525;51.152;4.456;2023-04-24T00:49:07;32.50;;;20.45;;
22715;SDS011;11525;51.152;4.456;2023-04-24T00:51:33;30.30;;;18.13;;
22715;SDS011;11525;51.152;4.456;2023-04-24T00:53:59;28.98;;;19.42;;
22715;SDS011;11525;51.152;4.456;2023-04-24T00:56:26;33.72;;;21.73;;
22715;SDS011;11525;51.152;4.456;2023-04-24T00:58:53;32.10;;;20.40;;
22715;SDS011;11525;51.152;4.456;2023-04-24T01:01:20;31.98;;;21.55;;
22715;SDS011;11525;51.152;4.456;2023-04-24T01:03:46;27.85;;;20.08;;
22715;SDS011;11525;51.152;4.456;2023-04-24T01:06:14;33.15;;;17.17;;
22715;SDS011;11525;51.152;4.456;2023-04-24T01:08:40;21.60;;;17.20;;
22715;SDS011;11525;51.152;4.456;2023-04-24T01:11:07;26.95;;;16.20;;
22715;SDS011;11525;51.152;4.456;2023-04-24T01:13:33;27.25;;;16.35;;
22715;SDS011;11525;51.152;4.456;2023-04-24T01:15:59;27.50;;;17.52;;
22715;SDS011;11525;51.152;4.456;2023-04-24T01:18:26;28.48;;;16.45;;
22715;SDS011;11525;51.152;4.456;2023-04-24T01:20:53;26.02;;;16.02;;
22715;SDS011;11525;51.152;4.456;2023-04-24T01:23:21;22.00;;;15.57;;
22715;SDS011;11525;51.152;4.456;2023-04-24T01:25:48;22.50;;;15.32;;
22715;SDS011;11525;51.152;4.456;2023-04-24T01:28:15;21.63;;;14.75;;
22715;SDS011;11525;51.152;4.456;2023-04-24T01:30:41;25.50;;;14.80;;
22715;SDS011;11525;51.152;4.456;2023-04-24T01:33:08;21.00;;;14.95;;
22715;SDS011;11525;51.152;4.456;2023-04-24T01:35:34;23.02;;;13.75;;
22715;SDS011;11525;51.152;4.456;2023-04-24T01:38:01;23.30;;;14.75;;
22715;SDS011;11525;51.152;4.456;2023-04-24T01:40:27;21.75;;;12.98;;
22715;SDS011;11525;51.152;4.456;2023-04-24T01:42:53;19.35;;;12.23;;
22715;SDS011;11525;51.152;4.456;2023-04-24T01:45:19;23.58;;;13.38;;
22715;SDS011;11525;51.152;4.456;2023-04-24T01:47:45;17.52;;;11.93;;
22715;SDS011;11525;51.152;4.456;2023-04-24T01:50:11;21.95;;;14.27;;
22715;SDS011;11525;51.152;4.456;2023-04-24T01:52:37;21.52;;;13.60;;
22715;SDS011;11525;51.152;4.456;2023-04-24T01:55:03;20.10;;;13.48;;
22715;SDS011;11525;51.152;4.456;2023-04-24T01:57:33;24.10;;;15.45;;
22715;SDS011;11525;51.152;4.456;2023-04-24T01:59:59;23.77;;;15.27;;
22715;SDS011;11525;51.152;4.456;2023-04-24T02:02:25;22.48;;;15.15;;
22715;SDS011;11525;51.152;4.456;2023-04-24T02:04:54;20.83;;;15.25;;
22715;SDS011;11525;51.152;4.456;2023-04-24T02:07:21;22.98;;;13.82;;
22715;SDS011;11525;51.152;4.456;2023-04-24T02:09:47;19.73;;;13.77;;
22715;SDS011;11525;51.152;4.456;2023-04-24T02:12:14;23.17;;;13.90;;
22715;SDS011;11525;51.152;4.456;2023-04-24T02:14:42;19.40;;;13.73;;
22715;SDS011;11525;51.152;4.456;2023-04-24T02:17:08;23.33;;;14.23;;
22715;SDS011;11525;51.152;4.456;2023-04-24T02:19:34;16.42;;;13.27;;
22715;SDS011;11525;51.152;4.456;2023-04-24T02:22:00;17.25;;;13.32;;
22715;SDS011;11525;51.152;4.456;2023-04-24T02:24:26;16.98;;;14.27;;
22715;SDS011;11525;51.152;4.456;2023-04-24T02:26:52;16.05;;;13.23;;
22715;SDS011;11525;51.152;4.456;2023-04-24T02:29:17;17.67;;;14.15;;
22715;SDS011;11525;51.152;4.456;2023-04-24T02:31:43;17.63;;;13.43;;
22715;SDS011;11525;51.152;4.456;2023-04-24T02:34:09;14.68;;;11.07;;
22715;SDS011;11525;51.152;4.456;2023-04-24T02:36:35;13.95;;;12.40;;
22715;SDS011;11525;51.152;4.456;2023-04-24T02:39:01;15.90;;;13.15;;
22715;SDS011;11525;51.152;4.456;2023-04-24T02:41:27;15.98;;;11.43;;
22715;SDS011;11525;51.152;4.456;2023-04-24T02:43:57;17.60;;;13.35;;
22715;SDS011;11525;51.152;4.456;2023-04-24T02:46:24;17.50;;;12.57;;
22715;SDS011;11525;51.152;4.456;2023-04-24T02:48:50;16.35;;;11.50;;
22715;SDS011;11525;51.152;4.456;2023-04-24T02:51:16;15.07;;;12.15;;
22715;SDS011;11525;51.152;4.456;2023-04-24T02:53:42;13.73;;;10.75;;
22715;SDS011;11525;51.152;4.456;2023-04-24T02:56:08;14.88;;;10.73;;
22715;SDS011;11525;51.152;4.456;2023-04-24T02:58:33;14.25;;;11.60;;
22715;SDS011;11525;51.152;4.456;2023-04-24T03:01:00;14.75;;;12.20;;
22715;SDS011;11525;51.152;4.456;2023-04-24T03:03:26;17.05;;;12.77;;
22715;SDS011;11525;51.152;4.456;2023-04-24T03:05:52;16.45;;;11.65;;
22715;SDS011;11525;51.152;4.456;2023-04-24T03:08:18;14.55;;;11.02;;
22715;SDS011;11525;51.152;4.456;2023-04-24T03:10:44;17.27;;;13.30;;
22715;SDS011;11525;51.152;4.456;2023-04-24T03:13:09;16.00;;;14.30;;
22715;SDS011;11525;51.152;4.456;2023-04-24T03:15:35;18.00;;;13.90;;
22715;SDS011;11525;51.152;4.456;2023-04-24T03:18:01;18.10;;;12.45;;
22715;SDS011;11525;51.152;4.456;2023-04-24T03:20:27;18.90;;;14.55;;
22715;SDS011;11525;51.152;4.456;2023-04-24T03:22:53;19.63;;;14.10;;
22715;SDS011;11525;51.152;4.456;2023-04-24T03:25:19;21.70;;;15.40;;
22715;SDS011;11525;51.152;4.456;2023-04-24T03:27:45;17.33;;;15.07;;
22715;SDS011;11525;51.152;4.456;2023-04-24T03:30:11;17.90;;;15.07;;
22715;SDS011;11525;51.152;4.456;2023-04-24T03:32:36;18.90;;;15.18;;
22715;SDS011;11525;51.152;4.456;2023-04-24T03:35:04;21.35;;;15.40;;
22715;SDS011;11525;51.152;4.456;2023-04-24T03:37:32;18.15;;;15.90;;
22715;SDS011;11525;51.152;4.456;2023-04-24T03:39:58;19.25;;;15.48;;
22715;SDS011;11525;51.152;4.456;2023-04-24T03:42:23;18.40;;;14.38;;
22715;SDS011;11525;51.152;4.456;2023-04-24T03:44:49;19.55;;;13.10;;
22715;SDS011;11525;51.152;4.456;2023-04-24T03:47:15;17.23;;;12.85;;
22715;SDS011;11525;51.152;4.456;2023-04-24T03:49:41;18.75;;;15.10;;
22715;SDS011;11525;51.152;4.456;2023-04-24T03:52:07;18.75;;;14.93;;
22715;SDS011;11525;51.152;4.456;2023-04-24T03:54:32;17.83;;;13.68;;
22715;SDS011;11525;51.152;4.456;2023-04-24T03:56:58;17.92;;;11.88;;
22715;SDS011;11525;51.152;4.456;2023-04-24T03:59:25;16.48;;;11.35;;
22715;SDS011;11525;51.152;4.456;2023-04-24T04:01:50;12.60;;;8.43;;
22715;SDS011;11525;51.152;4.456;2023-04-24T04:04:16;13.23;;;9.50;;
22715;SDS011;11525;51.152;4.456;2023-04-24T04:06:42;15.55;;;9.75;;
22715;SDS011;11525;51.152;4.456;2023-04-24T04:09:09;13.25;;;8.48;;
22715;SDS011;11525;51.152;4.456;2023-04-24T04:11:36;13.50;;;8.90;;
22715;SDS011;11525;51.152;4.456;2023-04-24T04:14:01;13.90;;;6.95;;
22715;SDS011;11525;51.152;4.456;2023-04-24T04:16:28;13.77;;;7.80;;
22715;SDS011;11525;51.152;4.456;2023-04-24T04:18:53;10.20;;;6.95;;
22715;SDS011;11525;51.152;4.456;2023-04-24T04:21:20;13.70;;;7.43;;
22715;SDS011;11525;51.152;4.456;2023-04-24T04:23:46;10.80;;;6.93;;
22715;SDS011;11525;51.152;4.456;2023-04-24T04:26:11;10.65;;;7.97;;
22715;SDS011;11525;51.152;4.456;2023-04-24T04:28:38;12.88;;;8.50;;
22715;SDS011;11525;51.152;4.456;2023-04-24T04:31:05;12.05;;;6.45;;
22715;SDS011;11525;51.152;4.456;2023-04-24T04:33:32;11.00;;;8.18;;
22715;SDS011;11525;51.152;4.456;2023-04-24T04:35:58;9.65;;;7.90;;
22715;SDS011;11525;51.152;4.456;2023-04-24T04:38:25;14.63;;;8.27;;
22715;SDS011;11525;51.152;4.456;2023-04-24T04:40:55;12.77;;;9.43;;
22715;SDS011;11525;51.152;4.456;2023-04-24T04:43:23;14.95;;;9.93;;
22715;SDS011;11525;51.152;4.456;2023-04-24T04:45:50;20.55;;;11.98;;
22715;SDS011;11525;51.152;4.456;2023-04-24T04:48:20;17.73;;;12.15;;
22715;SDS011;11525;51.152;4.456;2023-04-24T04:50:47;19.08;;;13.68;;
22715;SDS011;11525;51.152;4.456;2023-04-24T04:53:13;22.83;;;14.23;;
22715;SDS011;11525;51.152;4.456;2023-04-24T04:55:39;25.35;;;16.15;;
22715;SDS011;11525;51.152;4.456;2023-04-24T04:58:04;26.48;;;16.00;;
22715;SDS011;11525;51.152;4.456;2023-04-24T05:00:30;34.78;;;17.90;;
22715;SDS011;11525;51.152;4.456;2023-04-24T05:03:00;28.23;;;16.40;;
22715;SDS011;11525;51.152;4.456;2023-04-24T05:05:27;27.98;;;16.13;;
22715;SDS011;11525;51.152;4.456;2023-04-24T05:07:53;34.78;;;17.17;;
22715;SDS011;11525;51.152;4.456;2023-04-24T05:10:19;26.00;;;16.50;;
22715;SDS011;11525;51.152;4.456;2023-04-24T05:12:45;26.17;;;17.90;;
22715;SDS011;11525;51.152;4.456;2023-04-24T05:15:12;32.72;;;17.02;;
22715;SDS011;11525;51.152;4.456;2023-04-24T05:17:37;31.80;;;17.05;;
22715;SDS011;11525;51.152;4.456;2023-04-24T05:20:05;28.65;;;15.40;;
22715;SDS011;11525;51.152;4.456;2023-04-24T05:22:32;28.35;;;16.98;;
22715;SDS011;11525;51.152;4.456;2023-04-24T05:24:58;26.25;;;16.95;;
22715;SDS011;11525;51.152;4.456;2023-04-24T05:27:24;24.58;;;14.88;;
22715;SDS011;11525;51.152;4.456;2023-04-24T05:29:50;20.58;;;12.77;;
22715;SDS011;11525;51.152;4.456;2023-04-24T05:32:16;22.70;;;13.40;;
22715;SDS011;11525;51.152;4.456;2023-04-24T05:34:42;19.10;;;13.10;;
22715;SDS011;11525;51.152;4.456;2023-04-24T05:37:07;19.50;;;12.32;;
22715;SDS011;11525;51.152;4.456;2023-04-24T05:39:35;24.30;;;12.63;;
22715;SDS011;11525;51.152;4.456;2023-04-24T05:42:01;23.48;;;13.40;;
22715;SDS011;11525;51.152;4.456;2023-04-24T05:44:29;21.45;;;13.55;;
22715;SDS011;11525;51.152;4.456;2023-04-24T05:46:56;25.70;;;13.32;;
22715;SDS011;11525;51.152;4.456;2023-04-24T05:49:22;25.50;;;14.10;;
22715;SDS011;11525;51.152;4.456;2023-04-24T05:51:48;26.20;;;14.38;;
22715;SDS011;11525;51.152;4.456;2023-04-24T05:54:13;26.55;;;15.85;;
22715;SDS011;11525;51.152;4.456;2023-04-24T05:56:39;22.67;;;14.88;;
22715;SDS011;11525;51.152;4.456;2023-04-24T05:59:05;23.90;;;14.13;;
22715;SDS011;11525;51.152;4.456;2023-04-24T06:01:31;24.75;;;14.13;;
22715;SDS011;11525;51.152;4.456;2023-04-24T06:03:57;24.70;;;16.17;;
22715;SDS011;11525;51.152;4.456;2023-04-24T06:06:23;26.42;;;14.35;;
22715;SDS011;11525;51.152;4.456;2023-04-24T06:08:49;22.75;;;14.57;;
22715;SDS011;11525;51.152;4.456;2023-04-24T06:11:15;29.40;;;13.15;;
22715;SDS011;11525;51.152;4.456;2023-04-24T06:13:41;28.25;;;15.65;;
22715;SDS011;11525;51.152;4.456;2023-04-24T06:16:07;30.98;;;14.40;;
22715;SDS011;11525;51.152;4.456;2023-04-24T06:18:33;26.40;;;15.98;;
22715;SDS011;11525;51.152;4.456;2023-04-24T06:20:59;29.00;;;15.18;;
22715;SDS011;11525;51.152;4.456;2023-04-24T06:23:24;24.25;;;14.02;;
22715;SDS011;11525;51.152;4.456;2023-04-24T06:25:50;23.80;;;15.15;;
22715;SDS011;11525;51.152;4.456;2023-04-24T06:28:16;25.08;;;14.85;;
22715;SDS011;11525;51.152;4.456;2023-04-24T06:30:42;24.50;;;15.00;;
22715;SDS011;11525;51.152;4.456;2023-04-24T06:33:08;25.90;;;15.73;;
22715;SDS011;11525;51.152;4.456;2023-04-24T06:35:35;26.77;;;15.48;;
22715;SDS011;11525;51.152;4.456;2023-04-24T06:38:03;25.17;;;14.98;;
22715;SDS011;11525;51.152;4.456;2023-04-24T06:40:28;22.52;;;13.27;;
22715;SDS011;11525;51.152;4.456;2023-04-24T06:42:55;28.30;;;13.95;;
22715;SDS011;11525;51.152;4.456;2023-04-24T06:45:21;27.38;;;16.88;;
22715;SDS011;11525;51.152;4.456;2023-04-24T06:47:47;27.00;;;15.60;;
22715;SDS011;11525;51.152;4.456;2023-04-24T06:50:13;36.05;;;15.90;;
22715;SDS011;11525;51.152;4.456;2023-04-24T06:52:40;24.40;;;14.25;;
22715;SDS011;11525;51.152;4.456;2023-04-24T06:55:06;34.40;;;15.32;;
22715;SDS011;11525;51.152;4.456;2023-04-24T06:57:32;26.33;;;14.98;;
22715;SDS011;11525;51.152;4.456;2023-04-24T06:59:58;26.13;;;13.55;;
22715;SDS011;11525;51.152;4.456;2023-04-24T07:02:24;18.98;;;12.10;;
22715;SDS011;11525;51.152;4.456;2023-04-24T07:04:50;22.30;;;11.57;;
22715;SDS011;11525;51.152;4.456;2023-04-24T07:07:16;25.38;;;12.27;;
22715;SDS011;11525;51.152;4.456;2023-04-24T07:09:41;20.10;;;12.43;;
22715;SDS011;11525;51.152;4.456;2023-04-24T07:12:10;29.67;;;11.75;;
22715;SDS011;11525;51.152;4.456;2023-04-24T07:14:37;20.88;;;10.55;;
22715;SDS011;11525;51.152;4.456;2023-04-24T07:17:06;27.73;;;11.10;;
22715;SDS011;11525;51.152;4.456;2023-04-24T07:19:34;23.13;;;9.82;;
22715;SDS011;11525;51.152;4.456;2023-04-24T07:22:00;19.23;;;8.13;;
22715;SDS011;11525;51.152;4.456;2023-04-24T07:24:27;18.23;;;6.57;;
22715;SDS011;11525;51.152;4.456;2023-04-24T07:26:53;13.50;;;6.53;;
22715;SDS011;11525;51.152;4.456;2023-04-24T07:29:19;14.35;;;8.05;;
22715;SDS011;11525;51.152;4.456;2023-04-24T07:31:46;14.00;;;6.65;;
22715;SDS011;11525;51.152;4.456;2023-04-24T07:34:12;15.48;;;7.03;;
22715;SDS011;11525;51.152;4.456;2023-04-24T07:36:38;13.32;;;6.75;;
22715;SDS011;11525;51.152;4.456;2023-04-24T07:39:06;19.73;;;7.60;;
22715;SDS011;11525;51.152;4.456;2023-04-24T07:41:33;21.67;;;6.60;;
22715;SDS011;11525;51.152;4.456;2023-04-24T07:43:59;14.48;;;6.30;;
22715;SDS011;11525;51.152;4.456;2023-04-24T07:46:25;12.20;;;4.85;;
22715;SDS011;11525;51.152;4.456;2023-04-24T07:48:52;16.55;;;5.53;;
22715;SDS011;11525;51.152;4.456;2023-04-24T07:51:19;13.85;;;4.03;;
22715;SDS011;11525;51.152;4.456;2023-04-24T07:53:44;12.88;;;4.30;;
22715;SDS011;11525;51.152;4.456;2023-04-24T07:56:10;16.25;;;5.38;;
22715;SDS011;11525;51.152;4.456;2023-04-24T07:58:36;10.98;;;4.25;;
22715;SDS011;11525;51.152;4.456;2023-04-24T08:01:02;12.85;;;4.53;;
22715;SDS011;11525;51.152;4.456;2023-04-24T08:03:28;13.52;;;4.97;;
22715;SDS011;11525;51.152;4.456;2023-04-24T08:05:54;15.73;;;4.80;;
22715;SDS011;11525;51.152;4.456;2023-04-24T08:08:21;14.95;;;4.65;;
22715;SDS011;11525;51.152;4.456;2023-04-24T08:10:47;19.80;;;5.70;;
22715;SDS011;11525;51.152;4.456;2023-04-24T08:13:14;13.52;;;4.82;;
22715;SDS011;11525;51.152;4.456;2023-04-24T08:15:39;12.13;;;4.93;;
22715;SDS011;11525;51.152;4.456;2023-04-24T08:18:05;17.60;;;5.57;;
22715;SDS011;11525;51.152;4.456;2023-04-24T08:20:32;10.18;;;4.35;;
22715;SDS011;11525;51.152;4.456;2023-04-24T08:22:57;11.07;;;4.47;;
22715;SDS011;11525;51.152;4.456;2023-04-24T08:25:23;13.63;;;5.55;;
22715;SDS011;11525;51.152;4.456;2023-04-24T08:27:50;25.23;;;6.03;;
22715;SDS011;11525;51.152;4.456;2023-04-24T08:30:16;21.00;;;5.90;;
22715;SDS011;11525;51.152;4.456;2023-04-24T08:32:42;17.15;;;5.47;;
22715;SDS011;11525;51.152;4.456;2023-04-24T08:35:08;17.70;;;5.65;;
22715;SDS011;11525;51.152;4.456;2023-04-24T08:37:34;13.00;;;4.90;;
22715;SDS011;11525;51.152;4.456;2023-04-24T08:40:01;15.23;;;5.22;;
22715;SDS011;11525;51.152;4.456;2023-04-24T08:42:30;18.75;;;5.85;;
22715;SDS011;11525;51.152;4.456;2023-04-24T08:44:59;23.42;;;5.53;;
22715;SDS011;11525;51.152;4.456;2023-04-24T08:47:25;17.55;;;5.63;;
22715;SDS011;11525;51.152;4.456;2023-04-24T08:49:52;18.98;;;6.28;;
22715;SDS011;11525;51.152;4.456;2023-04-24T08:52:19;17.38;;;5.03;;
22715;SDS011;11525;51.152;4.456;2023-04-24T08:54:47;16.50;;;6.15;;
22715;SDS011;11525;51.152;4.456;2023-04-24T08:57:13;11.73;;;4.68;;
22715;SDS011;11525;51.152;4.456;2023-04-24T08:59:40;15.57;;;4.50;;
22715;SDS011;11525;51.152;4.456;2023-04-24T09:02:06;14.65;;;3.92;;
22715;SDS011;11525;51.152;4.456;2023-04-24T09:04:35;12.82;;;4.63;;
22715;SDS011;11525;51.152;4.456;2023-04-24T09:07:02;17.67;;;4.50;;
22715;SDS011;11525;51.152;4.456;2023-04-24T09:09:30;11.57;;;7.32;;
22715;SDS011;11525;51.152;4.456;2023-04-24T09:11:58;17.27;;;4.20;;
22715;SDS011;11525;51.152;4.456;2023-04-24T09:14:25;13.93;;;3.65;;
22715;SDS011;11525;51.152;4.456;2023-04-24T09:16:53;15.23;;;4.13;;
22715;SDS011;11525;51.152;4.456;2023-04-24T09:19:18;16.33;;;5.55;;
22715;SDS011;11525;51.152;4.456;2023-04-24T09:21:46;18.17;;;4.72;;
22715;SDS011;11525;51.152;4.456;2023-04-24T09:24:17;13.30;;;4.70;;
22715;SDS011;11525;51.152;4.456;2023-04-24T09:26:47;19.02;;;5.72;;
22715;SDS011;11525;51.152;4.456;2023-04-24T09:29:17;13.40;;;5.38;;
22715;SDS011;11525;51.152;4.456;2023-04-24T09:31:44;11.52;;;5.00;;
22715;SDS011;11525;51.152;4.456;2023-04-24T09:34:11;17.48;;;5.60;;
22715;SDS011;11525;51.152;4.456;2023-04-24T09:36:37;14.30;;;5.10;;
22715;SDS011;11525;51.152;4.456;2023-04-24T09:39:06;9.13;;;4.30;;
22715;SDS011;11525;51.152;4.456;2023-04-24T09:41:48;14.70;;;4.85;;
22715;SDS011;11525;51.152;4.456;2023-04-24T09:44:19;14.30;;;5.07;;
22715;SDS011;11525;51.152;4.456;2023-04-24T09:46:50;11.45;;;4.80;;
22715;SDS011;11525;51.152;4.456;2023-04-24T09:49:26;15.63;;;4.85;;
22715;SDS011;11525;51.152;4.456;2023-04-24T09:52:03;11.95;;;4.50;;
22715;SDS011;11525;51.152;4.456;2023-04-24T09:54:36;9.88;;;3.80;;
22715;SDS011;11525;51.152;4.456;2023-04-24T09:57:03;12.93;;;3.90;;
22715;SDS011;11525;51.152;4.456;2023-04-24T09:59:29;8.32;;;3.42;;
22715;SDS011;11525;51.152;4.456;2023-04-24T10:01:55;10.52;;;3.80;;
22715;SDS011;11525;51.152;4.456;2023-04-24T10:04:27;8.88;;;3.17;;
22715;SDS011;11525;51.152;4.456;2023-04-24T10:06:54;6.82;;;3.08;;
22715;SDS011;11525;51.152;4.456;2023-04-24T10:09:22;8.52;;;3.22;;
22715;SDS011;11525;51.152;4.456;2023-04-24T10:11:50;7.10;;;3.00;;
22715;SDS011;11525;51.152;4.456;2023-04-24T10:14:22;5.47;;;2.70;;
22715;SDS011;11525;51.152;4.456;2023-04-24T10:16:50;8.02;;;2.88;;
22715;SDS011;11525;51.152;4.456;2023-04-24T10:19:18;7.32;;;2.78;;
22715;SDS011;11525;51.152;4.456;2023-04-24T10:21:45;7.32;;;2.88;;
22715;SDS011;11525;51.152;4.456;2023-04-24T10:24:15;6.78;;;2.88;;
22715;SDS011;11525;51.152;4.456;2023-04-24T10:26:42;5.78;;;2.47;;
22715;SDS011;11525;51.152;4.456;2023-04-24T10:29:10;7.50;;;2.45;;
22715;SDS011;11525;51.152;4.456;2023-04-24T10:31:37;7.80;;;2.80;;
22715;SDS011;11525;51.152;4.456;2023-04-24T10:34:05;7.60;;;2.45;;
22715;SDS011;11525;51.152;4.456;2023-04-24T10:36:32;5.82;;;2.40;;
22715;SDS011;11525;51.152;4.456;2023-04-24T10:39:01;8.55;;;2.80;;
22715;SDS011;11525;51.152;4.456;2023-04-24T10:41:31;8.10;;;3.13;;
22715;SDS011;11525;51.152;4.456;2023-04-24T10:44:03;6.40;;;2.70;;
22715;SDS011;11525;51.152;4.456;2023-04-24T10:46:32;6.43;;;2.80;;
22715;SDS011;11525;51.152;4.456;2023-04-24T10:48:58;11.27;;;2.90;;
22715;SDS011;11525;51.152;4.456;2023-04-24T10:51:42;9.10;;;3.00;;
22715;SDS011;11525;51.152;4.456;2023-04-24T10:54:26;8.38;;;3.40;;
22715;SDS011;11525;51.152;4.456;2023-04-24T10:59:48;10.43;;;3.65;;
22715;SDS011;11525;51.152;4.456;2023-04-24T11:02:16;11.82;;;4.00;;
22715;SDS011;11525;51.152;4.456;2023-04-24T11:04:42;7.55;;;3.38;;
22715;SDS011;11525;51.152;4.456;2023-04-24T11:07:09;9.73;;;3.63;;
22715;SDS011;11525;51.152;4.456;2023-04-24T11:09:35;9.77;;;3.58;;
22715;SDS011;11525;51.152;4.456;2023-04-24T11:15:21;7.32;;;2.83;;
22715;SDS011;11525;51.152;4.456;2023-04-24T11:17:32;6.95;;;2.35;;
22715;SDS011;11525;51.152;4.456;2023-04-24T11:20:03;5.97;;;2.65;;
22715;SDS011;11525;51.152;4.456;2023-04-24T11:22:37;7.75;;;2.65;;
22715;SDS011;11525;51.152;4.456;2023-04-24T11:25:05;6.63;;;2.30;;
22715;SDS011;11525;51.152;4.456;2023-04-24T11:27:38;13.32;;;2.85;;
22715;SDS011;11525;51.152;4.456;2023-04-24T11:30:05;7.15;;;2.38;;
22715;SDS011;11525;51.152;4.456;2023-04-24T11:35:03;4.40;;;1.75;;
22715;SDS011;11525;51.152;4.456;2023-04-24T11:40:03;3.72;;;2.05;;
22715;SDS011;11525;51.152;4.456;2023-04-24T11:42:37;4.00;;;1.80;;
22715;SDS011;11525;51.152;4.456;2023-04-24T11:47:34;4.75;;;2.13;;
22715;SDS011;11525;51.152;4.456;2023-04-24T11:50:00;3.40;;;2.17;;
22715;SDS011;11525;51.152;4.456;2023-04-24T11:52:26;2.80;;;2.00;;
22715;SDS011;11525;51.152;4.456;2023-04-24T11:54:53;4.57;;;2.17;;
22715;SDS011;11525;51.152;4.456;2023-04-24T11:57:19;4.25;;;2.20;;
22715;SDS011;11525;51.152;4.456;2023-04-24T11:59:46;5.57;;;1.92;;
22715;SDS011;11525;51.152;4.456;2023-04-24T12:02:22;3.65;;;2.10;;
22715;SDS011;11525;51.152;4.456;2023-04-24T12:04:49;7.82;;;2.17;;
22715;SDS011;11525;51.152;4.456;2023-04-24T12:07:15;5.65;;;2.30;;
22715;SDS011;11525;51.152;4.456;2023-04-24T12:09:44;8.77;;;2.15;;
22715;SDS011;11525;51.152;4.456;2023-04-24T12:12:16;7.32;;;2.78;;
22715;SDS011;11525;51.152;4.456;2023-04-24T12:14:43;6.30;;;2.30;;
22715;SDS011;11525;51.152;4.456;2023-04-24T12:17:14;6.82;;;2.20;;
22715;SDS011;11525;51.152;4.456;2023-04-24T12:19:45;5.82;;;2.17;;
22715;SDS011;11525;51.152;4.456;2023-04-24T12:22:12;5.32;;;2.00;;
22715;SDS011;11525;51.152;4.456;2023-04-24T12:24:55;8.15;;;2.30;;
22715;SDS011;11525;51.152;4.456;2023-04-24T12:27:22;7.35;;;2.75;;
22715;SDS011;11525;51.152;4.456;2023-04-24T12:29:57;6.35;;;2.67;;
22715;SDS011;11525;51.152;4.456;2023-04-24T12:32:24;4.70;;;2.45;;
22715;SDS011;11525;51.152;4.456;2023-04-24T12:34:51;3.80;;;1.90;;
22715;SDS011;11525;51.152;4.456;2023-04-24T12:37:18;4.22;;;1.90;;
22715;SDS011;11525;51.152;4.456;2023-04-24T12:42:31;2.83;;;1.90;;
22715;SDS011;11525;51.152;4.456;2023-04-24T12:45:06;5.10;;;1.98;;
22715;SDS011;11525;51.152;4.456;2023-04-24T12:47:33;4.75;;;1.70;;
22715;SDS011;11525;51.152;4.456;2023-04-24T12:50:00;7.15;;;1.90;;
22715;SDS011;11525;51.152;4.456;2023-04-24T12:52:27;10.90;;;2.50;;
22715;SDS011;11525;51.152;4.456;2023-04-24T12:54:54;6.90;;;2.35;;
22715;SDS011;11525;51.152;4.456;2023-04-24T12:57:25;8.07;;;2.50;;
22715;SDS011;11525;51.152;4.456;2023-04-24T12:59:55;7.88;;;3.53;;
22715;SDS011;11525;51.152;4.456;2023-04-24T13:02:22;8.55;;;2.30;;
22715;SDS011;11525;51.152;4.456;2023-04-24T13:04:48;5.40;;;2.58;;
22715;SDS011;11525;51.152;4.456;2023-04-24T13:07:14;5.32;;;2.35;;
22715;SDS011;11525;51.152;4.456;2023-04-24T13:09:41;3.92;;;2.40;;
22715;SDS011;11525;51.152;4.456;2023-04-24T13:12:08;4.45;;;2.58;;
22715;SDS011;11525;51.152;4.456;2023-04-24T13:14:35;4.45;;;2.53;;
22715;SDS011;11525;51.152;4.456;2023-04-24T13:17:01;6.05;;;2.63;;
22715;SDS011;11525;51.152;4.456;2023-04-24T13:19:27;6.53;;;2.88;;
22715;SDS011;11525;51.152;4.456;2023-04-24T13:21:54;4.07;;;2.13;;
22715;SDS011;11525;51.152;4.456;2023-04-24T13:24:21;9.82;;;2.20;;
22715;SDS011;11525;51.152;4.456;2023-04-24T13:26:51;6.10;;;2.53;;
22715;SDS011;11525;51.152;4.456;2023-04-24T13:29:21;8.07;;;1.63;;
22715;SDS011;11525;51.152;4.456;2023-04-24T13:31:49;4.63;;;2.40;;
22715;SDS011;11525;51.152;4.456;2023-04-24T13:34:16;4.30;;;1.98;;
22715;SDS011;11525;51.152;4.456;2023-04-24T13:36:42;3.88;;;1.75;;
22715;SDS011;11525;51.152;4.456;2023-04-24T13:39:08;3.80;;;2.15;;
22715;SDS011;11525;51.152;4.456;2023-04-24T13:41:34;4.95;;;2.28;;
22715;SDS011;11525;51.152;4.456;2023-04-24T13:44:01;6.00;;;2.25;;
22715;SDS011;11525;51.152;4.456;2023-04-24T13:46:31;6.18;;;2.40;;
22715;SDS011;11525;51.152;4.456;2023-04-24T13:48:57;4.05;;;2.00;;
22715;SDS011;11525;51.152;4.456;2023-04-24T13:51:26;4.32;;;2.20;;
22715;SDS011;11525;51.152;4.456;2023-04-24T13:53:52;3.90;;;2.15;;
22715;SDS011;11525;51.152;4.456;2023-04-24T13:56:18;4.05;;;2.60;;
22715;SDS011;11525;51.152;4.456;2023-04-24T13:58:45;2.78;;;1.88;;
22715;SDS011;11525;51.152;4.456;2023-04-24T14:01:11;4.57;;;2.17;;
22715;SDS011;11525;51.152;4.456;2023-04-24T14:03:38;5.43;;;2.03;;
22715;SDS011;11525;51.152;4.456;2023-04-24T14:06:04;6.50;;;2.10;;
22715;SDS011;11525;51.152;4.456;2023-04-24T14:08:31;4.50;;;2.22;;
22715;SDS011;11525;51.152;4.456;2023-04-24T14:10:57;3.75;;;2.20;;
22715;SDS011;11525;51.152;4.456;2023-04-24T14:13:23;4.43;;;2.50;;
22715;SDS011;11525;51.152;4.456;2023-04-24T14:15:49;1.58;;;1.45;;
22715;SDS011;11525;51.152;4.456;2023-04-24T14:18:17;4.05;;;1.80;;
22715;SDS011;11525;51.152;4.456;2023-04-24T14:20:43;5.35;;;1.80;;
22715;SDS011;11525;51.152;4.456;2023-04-24T14:23:09;2.75;;;1.23;;
22715;SDS011;11525;51.152;4.456;2023-04-24T14:25:35;3.25;;;1.55;;
22715;SDS011;11525;51.152;4.456;2023-04-24T14:28:01;3.22;;;1.80;;
22715;SDS011;11525;51.152;4.456;2023-04-24T14:30:27;1.90;;;1.60;;
22715;SDS011;11525;51.152;4.456;2023-04-24T14:32:53;8.88;;;1.90;;
22715;SDS011;11525;51.152;4.456;2023-04-24T14:35:19;3.10;;;1.80;;
22715;SDS011;11525;51.152;4.456;2023-04-24T14:37:44;4.25;;;1.70;;
22715;SDS011;11525;51.152;4.456;2023-04-24T14:40:10;4.35;;;1.70;;
22715;SDS011;11525;51.152;4.456;2023-04-24T14:42:36;3.67;;;1.90;;
22715;SDS011;11525;51.152;4.456;2023-04-24T14:45:02;3.63;;;2.00;;
22715;SDS011;11525;51.152;4.456;2023-04-24T14:47:28;3.75;;;2.03;;